Time;durP1;ratioP1;P1;durP2;ratioP2;P2;SDS_P1;SDS_P2;PMS_P1;PMS_P2;Temp;Humidity;BMP_temperature;BMP_pressure;BME280_temperature;BME280_humidity;BME280_pressure;Samples;Min_cycle;Max_cycle;Signal;HPM_P1;HPM_P2
2022/01/20 05:01:49;;;;;;;14.35;9.32;;;3.00;99.90;;;;;;5355783;22;96234;-75
2022/01/20 05:04:15;;;;;;;14.68;10.10;;;3.00;99.90;;;;;;4996640;28;94508;-75
2022/01/20 05:06:42;;;;;;;15.93;10.38;;;3.00;99.90;;;;;;4996452;28;95476;-75
2022/01/20 05:09:10;;;;;;;15.40;9.93;;;3.00;99.90;;;;;;4996183;28;94525;-75
2022/01/20 05:11:41;;;;;;;15.85;10.32;;;3.10;99.90;;;;;;4996081;28;94487;-75
2022/01/20 05:14:07;;;;;;;15.10;9.75;;;3.00;99.90;;;;;;4994527;28;94600;-75
2022/01/20 05:16:33;;;;;;;14.38;9.45;;;3.10;99.90;;;;;;4997381;28;94424;-76
2022/01/20 05:18:58;;;;;;;12.45;9.13;;;3.10;99.90;;;;;;4995615;28;96584;-76
2022/01/20 05:21:24;;;;;;;14.55;9.48;;;3.10;99.90;;;;;;4995240;28;96668;-76
2022/01/20 05:23:49;;;;;;;14.13;9.73;;;3.10;99.90;;;;;;4996736;28;94519;-77
2022/01/20 05:26:15;;;;;;;15.10;9.55;;;3.10;99.90;;;;;;4996117;28;96159;-77
2022/01/20 05:28:40;;;;;;;14.98;10.02;;;3.10;99.90;;;;;;4996787;28;94575;-76
2022/01/20 05:31:06;;;;;;;14.18;9.57;;;3.20;99.90;;;;;;4996466;28;94647;-76
2022/01/20 05:33:31;;;;;;;13.73;10.02;;;3.10;99.90;;;;;;4996086;28;94423;-77
2022/01/20 05:35:57;;;;;;;16.35;10.35;;;3.20;99.90;;;;;;4994300;28;97183;-76
2022/01/20 05:38:22;;;;;;;16.02;10.82;;;3.10;99.90;;;;;;4995995;28;94783;-76
2022/01/20 05:40:48;;;;;;;17.73;10.50;;;3.10;99.90;;;;;;4994747;28;94551;-76
2022/01/20 05:43:14;;;;;;;17.38;11.52;;;3.10;99.90;;;;;;4996127;28;93754;-76
2022/01/20 05:45:40;;;;;;;17.20;11.10;;;3.10;99.90;;;;;;4995555;28;95027;-76
2022/01/20 05:48:12;;;;;;;14.88;10.50;;;3.10;99.90;;;;;;4995667;28;94786;-76
2022/01/20 05:50:38;;;;;;;17.77;11.02;;;3.10;99.90;;;;;;4995288;28;95379;-76
2022/01/20 05:53:05;;;;;;;15.30;10.30;;;3.10;99.90;;;;;;4995408;28;94488;-76
2022/01/20 05:55:31;;;;;;;14.38;9.93;;;3.10;99.90;;;;;;4995644;28;95173;-76
2022/01/20 05:57:57;;;;;;;16.80;10.88;;;3.10;99.90;;;;;;4996082;28;94406;-76
2022/01/20 06:00:25;;;;;;;17.00;10.57;;;3.10;99.90;;;;;;4995305;28;94342;-76
2022/01/20 06:05:35;;;;;;;17.20;9.93;;;3.20;99.90;;;;;;4993306;28;94802;-76
2022/01/20 06:08:01;;;;;;;18.63;10.95;;;3.20;99.90;;;;;;4994835;28;97870;-76
2022/01/20 06:10:27;;;;;;;16.38;11.35;;;3.20;99.90;;;;;;4995546;28;94477;-76
2022/01/20 06:12:53;;;;;;;16.98;10.35;;;3.10;99.90;;;;;;4993705;28;94598;-76
2022/01/20 06:15:18;;;;;;;20.83;11.30;;;3.20;99.90;;;;;;4994680;28;96067;-76
2022/01/20 06:17:44;;;;;;;16.13;10.80;;;3.20;99.90;;;;;;4995005;28;96280;-76
2022/01/20 06:20:11;;;;;;;18.00;11.02;;;3.20;99.90;;;;;;4995201;28;94539;-76
2022/01/20 06:22:37;;;;;;;18.70;11.25;;;3.10;99.90;;;;;;4994771;28;94449;-76
2022/01/20 06:25:04;;;;;;;19.70;10.98;;;3.10;99.90;;;;;;4994981;28;94473;-76
2022/01/20 06:27:30;;;;;;;18.95;11.27;;;3.20;99.90;;;;;;4994962;28;96831;-76
2022/01/20 06:29:56;;;;;;;16.95;11.27;;;3.20;99.90;;;;;;4994074;28;94458;-76
2022/01/20 06:32:21;;;;;;;21.80;11.27;;;3.10;99.90;;;;;;4995057;28;93728;-76
2022/01/20 06:34:47;;;;;;;19.80;10.57;;;3.10;99.90;;;;;;4995117;28;94483;-76
2022/01/20 06:37:13;;;;;;;16.40;10.73;;;3.10;99.90;;;;;;4993551;28;98116;-76
2022/01/20 06:39:39;;;;;;;19.70;11.82;;;3.10;99.90;;;;;;4994788;28;95384;-76
2022/01/20 06:42:05;;;;;;;20.98;11.07;;;3.10;99.90;;;;;;4994979;28;94529;-76
2022/01/20 06:44:31;;;;;;;19.80;12.02;;;3.00;99.90;;;;;;4994532;28;95648;-76
2022/01/20 06:46:56;;;;;;;20.10;11.55;;;3.00;99.90;;;;;;4994686;28;95918;-76
2022/01/20 06:49:22;;;;;;;19.65;11.43;;;3.10;99.90;;;;;;4995021;28;94633;-76
2022/01/20 06:51:48;;;;;;;19.25;12.27;;;3.00;99.90;;;;;;4994623;28;94514;-76
2022/01/20 06:54:14;;;;;;;18.27;11.02;;;3.10;99.90;;;;;;4994618;28;94484;-76
2022/01/20 06:56:42;;;;;;;22.38;11.45;;;3.10;99.90;;;;;;4994987;28;95337;-76
2022/01/20 06:59:11;;;;;;;18.73;10.90;;;3.10;99.90;;;;;;4994660;28;94403;-76
2022/01/20 07:01:38;;;;;;;17.08;11.48;;;3.10;99.90;;;;;;4993871;28;94548;-77
2022/01/20 07:04:04;;;;;;;22.75;11.95;;;3.10;99.90;;;;;;4993965;28;95527;-77
2022/01/20 07:06:29;;;;;;;22.20;12.18;;;3.10;99.90;;;;;;4995123;28;95888;-77
2022/01/20 07:08:55;;;;;;;22.08;12.38;;;3.10;99.90;;;;;;4994875;28;94381;-77
2022/01/20 07:11:20;;;;;;;19.45;11.90;;;3.20;99.90;;;;;;4992868;28;94430;-77
2022/01/20 07:13:46;;;;;;;17.70;11.18;;;3.10;99.90;;;;;;4993691;28;96847;-77
2022/01/20 07:16:11;;;;;;;20.73;10.98;;;3.10;99.90;;;;;;4994206;28;95326;-78
2022/01/20 07:18:37;;;;;;;16.83;10.75;;;3.10;99.90;;;;;;4983511;28;94402;-77
2022/01/20 07:21:03;;;;;;;23.55;11.15;;;3.20;99.90;;;;;;4975948;28;93740;-77
2022/01/20 07:23:28;;;;;;;18.27;10.10;;;3.20;99.90;;;;;;4993382;28;96915;-77
2022/01/20 07:25:54;;;;;;;19.50;10.90;;;3.20;99.90;;;;;;4995162;28;94877;-77
2022/01/20 07:28:19;;;;;;;17.30;10.52;;;3.20;99.90;;;;;;4994560;28;95422;-77
2022/01/20 07:30:45;;;;;;;15.85;10.00;;;3.20;99.90;;;;;;4994449;28;94480;-77
2022/01/20 07:33:11;;;;;;;19.95;11.45;;;3.30;99.90;;;;;;4994113;28;94558;-77
2022/01/20 07:35:37;;;;;;;15.90;9.73;;;3.30;99.90;;;;;;4993971;28;94488;-79
2022/01/20 07:38:05;;;;;;;17.20;9.80;;;3.30;99.90;;;;;;4995714;28;94353;-78
2022/01/20 07:40:32;;;;;;;16.40;10.02;;;3.20;99.90;;;;;;4993501;28;94446;-78
2022/01/20 07:42:58;;;;;;;18.67;9.75;;;3.30;99.90;;;;;;4993727;28;94526;-78
2022/01/20 07:45:24;;;;;;;15.20;9.52;;;3.30;99.90;;;;;;4993575;28;97677;-77
2022/01/20 07:47:50;;;;;;;16.65;9.23;;;3.30;99.90;;;;;;4995090;28;94437;-77
2022/01/20 07:50:15;;;;;;;20.42;9.50;;;3.30;99.90;;;;;;4995198;28;94749;-77
2022/01/20 07:52:41;;;;;;;12.85;8.50;;;3.30;99.90;;;;;;4984000;28;96213;-77
2022/01/20 07:55:07;;;;;;;17.52;9.57;;;3.30;99.90;;;;;;4974853;28;97250;-77
2022/01/20 07:57:33;;;;;;;13.93;9.25;;;3.30;99.90;;;;;;4973297;28;94395;-76
2022/01/20 07:59:59;;;;;;;13.82;9.02;;;3.30;99.90;;;;;;4990409;28;94499;-76
2022/01/20 08:02:25;;;;;;;14.93;9.70;;;3.40;99.90;;;;;;4997172;28;95273;-76
2022/01/20 08:04:50;;;;;;;14.00;8.73;;;3.30;99.90;;;;;;5015002;28;94854;-77
2022/01/20 08:07:17;;;;;;;17.67;9.73;;;3.40;99.90;;;;;;5015115;28;94544;-76
2022/01/20 08:09:44;;;;;;;18.77;9.07;;;3.30;99.90;;;;;;5013643;28;93912;-76
2022/01/20 08:12:11;;;;;;;13.23;8.50;;;3.30;99.90;;;;;;5013582;28;98037;-75
2022/01/20 08:14:37;;;;;;;13.70;8.10;;;3.40;99.90;;;;;;5014681;28;94849;-76
2022/01/20 08:17:02;;;;;;;15.13;9.20;;;3.50;99.90;;;;;;5011688;28;95885;-76
2022/01/20 08:19:28;;;;;;;12.95;8.90;;;3.50;99.90;;;;;;4993810;28;94759;-77
2022/01/20 08:21:53;;;;;;;14.73;8.55;;;3.60;99.90;;;;;;4994441;28;94576;-77
2022/01/20 08:24:19;;;;;;;16.50;8.85;;;3.60;99.90;;;;;;5014352;28;94922;-77
2022/01/20 08:26:45;;;;;;;14.13;8.80;;;3.60;99.90;;;;;;5006346;28;94671;-76
2022/01/20 08:29:10;;;;;;;16.65;8.90;;;3.70;99.90;;;;;;4992345;28;94656;-76
2022/01/20 08:31:36;;;;;;;15.77;9.00;;;3.70;99.90;;;;;;4995168;28;95637;-76
2022/01/20 08:34:01;;;;;;;13.70;8.20;;;3.80;99.90;;;;;;4996329;28;94752;-75
2022/01/20 08:36:27;;;;;;;16.75;8.10;;;3.80;99.90;;;;;;4993342;28;94404;-77
2022/01/20 08:38:52;;;;;;;16.02;8.88;;;3.80;99.90;;;;;;4993195;28;94546;-79
2022/01/20 08:41:18;;;;;;;13.60;8.43;;;3.90;99.90;;;;;;4992338;28;99381;-78
2022/01/20 08:43:44;;;;;;;14.93;8.82;;;3.90;99.90;;;;;;4994387;28;96227;-79
2022/01/20 08:46:11;;;;;;;19.95;8.95;;;3.90;99.90;;;;;;4983948;28;94598;-77
2022/01/20 08:48:39;;;;;;;15.85;8.63;;;3.90;99.90;;;;;;4978144;28;94517;-76
2022/01/20 08:51:06;;;;;;;16.13;9.27;;;4.00;99.90;;;;;;4977371;28;96145;-76
2022/01/20 08:53:32;;;;;;;14.32;9.20;;;4.10;99.90;;;;;;4977363;28;96017;-76
2022/01/20 08:56:00;;;;;;;14.05;9.13;;;4.10;99.90;;;;;;4978303;28;94450;-76
2022/01/20 08:58:26;;;;;;;16.25;9.35;;;4.10;99.90;;;;;;4978284;28;93835;-77
2022/01/20 09:00:52;;;;;;;17.48;9.93;;;4.10;99.90;;;;;;4976926;28;94446;-77
2022/01/20 09:03:18;;;;;;;16.63;9.80;;;4.20;99.90;;;;;;4975875;28;97788;-77
2022/01/20 09:05:44;;;;;;;17.95;9.45;;;4.20;99.90;;;;;;4977570;28;95290;-78
2022/01/20 09:08:10;;;;;;;20.20;9.93;;;4.20;99.90;;;;;;4980172;28;94591;-77
2022/01/20 09:10:42;;;;;;;20.88;9.70;;;4.10;99.90;;;;;;4984118;28;95242;-78
2022/01/20 09:15:54;;;;;;;18.08;9.43;;;4.20;99.90;;;;;;4997627;28;94455;-79
2022/01/20 09:18:22;;;;;;;17.48;9.85;;;4.60;99.90;;;;;;4999285;28;94624;-79
2022/01/20 09:20:48;;;;;;;21.40;9.57;;;4.70;99.90;;;;;;4998040;28;97014;-79
2022/01/20 09:23:14;;;;;;;19.27;9.32;;;4.80;99.90;;;;;;4986202;28;95241;-80
2022/01/20 09:25:41;;;;;;;15.77;9.18;;;4.80;99.90;;;;;;4978757;28;94444;-80
2022/01/20 09:28:07;;;;;;;15.48;8.23;;;4.90;99.90;;;;;;4977202;28;94510;-79
2022/01/20 09:30:35;;;;;;;15.88;8.38;;;5.00;99.90;;;;;;4979439;28;95814;-79
2022/01/20 09:33:12;;;;;;;17.63;8.38;;;5.00;99.90;;;;;;4979112;28;95801;-79
2022/01/20 09:35:40;;;;;;;13.80;7.55;;;5.00;99.90;;;;;;4978985;28;94463;-80
2022/01/20 09:38:06;;;;;;;14.57;7.30;;;5.00;99.90;;;;;;4978828;28;94497;-80
2022/01/20 09:40:34;;;;;;;14.50;7.68;;;4.90;99.90;;;;;;4977597;28;98207;-81
2022/01/20 09:43:00;;;;;;;14.82;7.68;;;4.90;99.90;;;;;;4977096;28;96145;-82
2022/01/20 09:45:26;;;;;;;15.50;7.60;;;4.80;99.90;;;;;;4978306;28;94382;-82
2022/01/20 09:47:53;;;;;;;16.15;6.93;;;4.80;99.90;;;;;;4979497;28;93857;-77
2022/01/20 09:50:21;;;;;;;15.27;6.95;;;4.80;99.90;;;;;;5013499;28;97919;-77
2022/01/20 09:52:48;;;;;;;18.80;7.05;;;4.90;99.90;;;;;;5015744;28;98319;-77
2022/01/20 09:55:14;;;;;;;13.90;7.10;;;5.00;99.90;;;;;;5015389;28;95644;-77
2022/01/20 09:57:40;;;;;;;11.82;6.28;;;4.90;99.90;;;;;;5016065;28;94610;-82
2022/01/20 10:00:12;;;;;;;13.88;6.32;;;4.80;99.90;;;;;;5016662;28;98441;-80
2022/01/20 10:02:50;;;;;;;17.85;7.72;;;4.80;99.90;;;;;;5015866;28;98733;-80
2022/01/20 10:05:24;;;;;;;12.60;6.85;;;4.90;99.90;;;;;;5018373;28;94474;-84
2022/01/20 10:07:50;;;;;;;19.10;6.80;;;4.80;99.90;;;;;;5019247;28;94518;-80
2022/01/20 10:10:15;;;;;;;16.38;6.50;;;4.90;99.90;;;;;;5015895;28;95512;-78
2022/01/20 10:12:41;;;;;;;14.90;7.05;;;5.10;99.90;;;;;;4984391;28;95141;-80
2022/01/20 10:15:11;;;;;;;14.38;6.97;;;5.00;99.90;;;;;;4996244;28;94428;-79
2022/01/20 10:17:36;;;;;;;14.35;6.40;;;5.00;99.90;;;;;;4998893;28;94514;-78
2022/01/20 10:20:06;;;;;;;17.85;6.57;;;5.00;99.90;;;;;;4996373;28;98284;-77
2022/01/20 10:22:35;;;;;;;19.00;6.25;;;4.90;99.90;;;;;;4998111;28;95998;-78
2022/01/20 10:25:12;;;;;;;15.13;5.97;;;4.90;99.90;;;;;;4997544;28;94522;-77
2022/01/20 10:27:52;;;;;;;14.60;6.72;;;4.90;99.90;;;;;;4999401;28;94682;-78
2022/01/20 10:30:19;;;;;;;12.95;6.40;;;4.90;99.90;;;;;;4998498;28;98651;-78
2022/01/20 10:32:50;;;;;;;13.80;6.80;;;4.80;99.90;;;;;;4999615;28;94619;-77
2022/01/20 10:35:23;;;;;;;17.63;7.05;;;4.70;99.90;;;;;;4998260;28;94649;-78
2022/01/20 10:38:02;;;;;;;13.23;5.90;;;4.80;99.90;;;;;;4999547;28;93655;-78
2022/01/20 10:40:28;;;;;;;18.02;6.60;;;4.80;99.90;;;;;;4999829;28;95458;-78
2022/01/20 10:42:54;;;;;;;15.13;6.72;;;4.80;99.90;;;;;;4997648;28;96592;-77
2022/01/20 10:45:28;;;;;;;12.85;6.53;;;4.80;99.90;;;;;;4999376;28;95376;-77
2022/01/20 10:47:58;;;;;;;13.63;5.93;;;4.70;99.90;;;;;;4999265;28;94426;-77
2022/01/20 10:50:30;;;;;;;15.52;6.60;;;4.70;99.90;;;;;;4997893;28;95748;-77
2022/01/20 10:52:56;;;;;;;12.98;6.03;;;4.80;99.90;;;;;;4996842;28;97796;-77
2022/01/20 10:55:31;;;;;;;11.85;6.15;;;4.80;99.90;;;;;;4997471;28;94607;-78
2022/01/20 10:58:27;;;;;;;14.02;7.07;;;5.00;99.90;;;;;;4999226;28;94436;-77
2022/01/20 11:00:55;;;;;;;17.33;6.53;;;5.00;99.90;;;;;;4998280;28;94456;-78
2022/01/20 11:03:23;;;;;;;10.65;6.20;;;5.00;99.90;;;;;;4999407;28;94146;-77
2022/01/20 11:05:51;;;;;;;12.13;5.70;;;5.00;99.90;;;;;;4997394;28;94510;-78
2022/01/20 11:08:17;;;;;;;18.55;5.90;;;5.10;99.90;;;;;;4996807;28;94531;-77
2022/01/20 11:10:44;;;;;;;14.07;5.82;;;5.10;99.90;;;;;;4994664;28;99227;-78
2022/01/20 11:13:11;;;;;;;11.77;5.85;;;5.00;99.90;;;;;;4996215;28;98796;-77
2022/01/20 11:15:37;;;;;;;13.77;5.68;;;4.80;99.90;;;;;;5019178;22;94871;-79
2022/01/20 11:18:03;;;;;;;10.07;4.93;;;4.80;99.90;;;;;;4996973;28;94490;-79
2022/01/20 11:20:32;;;;;;;11.80;5.07;;;4.80;99.90;;;;;;4998644;28;94468;-79
2022/01/20 11:23:02;;;;;;;14.32;6.10;;;4.70;99.90;;;;;;4999108;28;94377;-79
2022/01/20 11:25:35;;;;;;;19.95;7.13;;;4.70;99.90;;;;;;4998826;28;94373;-79
2022/01/20 11:28:21;;;;;;;11.35;5.60;;;4.60;99.90;;;;;;4999059;28;93713;-80
2022/01/20 11:30:59;;;;;;;8.38;3.83;;;4.30;99.90;;;;;;4999526;28;94464;-80
2022/01/20 11:33:39;;;;;;;5.93;2.10;;;4.00;99.90;;;;;;4999059;28;94838;-79
2022/01/20 11:36:08;;;;;;;15.77;6.70;;;3.20;99.90;;;;;;4997080;28;95573;-80
2022/01/20 11:38:46;;;;;;;9.65;5.40;;;2.80;99.90;;;;;;4999637;28;94450;-80
2022/01/20 11:41:14;;;;;;;15.43;7.43;;;2.80;99.90;;;;;;5002678;28;95560;-80
2022/01/20 11:43:52;;;;;;;13.23;5.63;;;2.90;99.90;;;;;;5004833;28;96544;-81
2022/01/20 11:46:23;;;;;;;10.65;4.55;;;3.20;99.90;;;;;;5014431;28;94507;-82
2022/01/20 11:49:10;;;;;;;9.05;4.65;;;3.40;99.90;;;;;;5016465;28;93881;-81
2022/01/20 11:51:48;;;;;;;11.20;4.60;;;3.60;99.90;;;;;;5003818;28;95565;-82
2022/01/20 11:54:39;;;;;;;13.02;5.00;;;3.80;99.90;;;;;;4998859;28;95308;-79
2022/01/20 11:57:25;;;;;;;14.95;5.95;;;4.00;99.90;;;;;;4987083;28;94354;-79
2022/01/20 11:59:55;;;;;;;12.75;6.00;;;4.20;99.90;;;;;;4995225;28;94525;-79
2022/01/20 12:02:24;;;;;;;11.75;5.40;;;4.30;99.90;;;;;;4997072;28;95563;-79
2022/01/20 12:04:51;;;;;;;15.27;5.05;;;4.30;99.90;;;;;;4995971;28;98125;-78
2022/01/20 12:07:29;;;;;;;6.53;3.50;;;4.40;99.90;;;;;;5000725;28;94398;-81
2022/01/20 12:10:07;;;;;;;7.38;3.20;;;4.40;99.90;;;;;;4998479;28;94810;-80
2022/01/20 12:12:33;;;;;;;7.40;3.10;;;4.30;99.90;;;;;;4998408;28;94465;-80
2022/01/20 12:15:21;;;;;;;8.20;2.78;;;4.30;99.90;;;;;;4996252;28;96450;-80
2022/01/20 12:17:55;;;;;;;8.60;3.10;;;4.20;99.90;;;;;;4997624;28;94468;-79
2022/01/20 12:20:22;;;;;;;11.55;2.85;;;4.20;99.90;;;;;;4997553;28;93743;-82
2022/01/20 12:22:48;;;;;;;10.52;2.63;;;4.10;99.90;;;;;;5005252;28;95387;-79
2022/01/20 12:25:23;;;;;;;15.35;4.38;;;4.00;99.90;;;;;;5001385;28;97568;-80
2022/01/20 12:27:49;;;;;;;5.55;2.58;;;4.00;99.90;;;;;;5003715;28;95473;-80
2022/01/20 12:30:23;;;;;;;8.55;2.20;;;4.00;99.90;;;;;;5005320;28;94388;-81
2022/01/20 12:33:00;;;;;;;8.15;2.88;;;4.00;99.90;;;;;;5006853;28;95213;-81
2022/01/20 12:35:34;;;;;;;9.15;2.20;;;3.90;99.90;;;;;;5005251;28;94344;-80
2022/01/20 12:38:00;;;;;;;7.63;2.20;;;3.80;99.90;;;;;;5003474;28;94678;-81
2022/01/20 12:40:25;;;;;;;6.70;2.30;;;3.70;99.90;;;;;;5001576;28;94481;-80
2022/01/20 12:42:51;;;;;;;12.10;2.33;;;3.80;99.90;;;;;;4998119;28;95357;-79
2022/01/20 12:48:10;;;;;;;9.85;2.50;;;3.80;99.90;;;;;;5005287;28;94535;-80
2022/01/20 12:50:36;;;;;;;11.18;2.85;;;3.90;99.90;;;;;;5004823;28;94546;-79
2022/01/20 12:53:01;;;;;;;9.45;2.38;;;3.80;99.90;;;;;;5006388;28;95519;-81
2022/01/20 12:55:27;;;;;;;12.15;2.80;;;3.80;99.90;;;;;;5005831;28;96243;-81
2022/01/20 12:57:59;;;;;;;10.73;2.35;;;3.80;99.90;;;;;;5006894;28;94390;-80
2022/01/20 13:00:25;;;;;;;9.73;2.50;;;3.80;99.90;;;;;;5001519;28;94553;-81
2022/01/20 13:02:51;;;;;;;10.73;2.20;;;3.80;99.90;;;;;;5005002;28;97883;-80
2022/01/20 13:05:18;;;;;;;7.72;2.53;;;3.80;99.90;;;;;;5004098;28;94520;-80
2022/01/20 13:07:51;;;;;;;7.82;2.30;;;3.90;99.90;;;;;;5000044;28;94474;-80
2022/01/20 13:10:31;;;;;;;5.78;2.38;;;3.90;99.90;;;;;;5001696;28;93606;-80
2022/01/20 13:12:57;;;;;;;7.30;2.55;;;3.90;99.90;;;;;;5001200;28;94491;-79
2022/01/20 13:15:24;;;;;;;9.38;2.00;;;3.90;99.90;;;;;;4999981;28;94688;-80
2022/01/20 13:18:08;;;;;;;6.90;2.60;;;4.00;99.90;;;;;;5000441;28;95460;-79
2022/01/20 13:20:41;;;;;;;8.95;2.75;;;3.90;99.90;;;;;;4998432;28;94574;-80
2022/01/20 13:23:54;;;;;;;8.60;3.00;;;3.90;99.90;;;;;;4997095;28;95461;-79
2022/01/20 13:26:08;;;;;;;9.38;2.97;;;3.90;99.90;;;;;;4995869;28;95055;-79
2022/01/20 13:28:35;;;;;;;8.77;2.30;;;3.80;99.90;;;;;;4996282;28;94494;-79
2022/01/20 13:31:14;;;;;;;8.90;2.58;;;3.80;99.90;;;;;;4997080;28;94498;-80
2022/01/20 13:33:39;;;;;;;8.00;2.35;;;3.80;99.90;;;;;;4994202;28;97128;-79
2022/01/20 13:36:05;;;;;;;8.18;2.53;;;3.70;99.90;;;;;;4996883;28;95095;-79
2022/01/20 13:38:38;;;;;;;9.85;2.35;;;3.70;99.90;;;;;;4997472;28;94571;-79
2022/01/20 13:41:13;;;;;;;6.93;2.10;;;3.60;99.90;;;;;;4997253;28;94623;-79
2022/01/20 13:46:41;;;;;;;7.45;2.03;;;3.50;99.90;;;;;;4996053;28;95346;-78
2022/01/20 13:49:13;;;;;;;6.18;1.98;;;3.40;99.90;;;;;;4995803;28;94694;-80
2022/01/20 13:51:39;;;;;;;7.75;2.22;;;3.40;99.90;;;;;;4998699;28;94431;-79
2022/01/20 13:54:05;;;;;;;7.47;2.08;;;3.40;99.90;;;;;;4998780;28;97948;-79
2022/01/20 13:56:31;;;;;;;8.05;2.25;;;3.50;99.90;;;;;;4999524;28;96127;-80
2022/01/20 13:59:09;;;;;;;9.45;2.50;;;3.60;99.90;;;;;;5000514;28;94479;-81
2022/01/20 14:01:35;;;;;;;7.25;2.60;;;3.60;99.90;;;;;;5000916;28;93957;-80
2022/01/20 14:04:01;;;;;;;12.32;2.90;;;3.60;99.90;;;;;;5000061;28;97844;-80
2022/01/20 14:06:27;;;;;;;8.00;2.63;;;3.60;99.90;;;;;;5001431;28;97799;-80
2022/01/20 14:08:54;;;;;;;7.70;2.13;;;3.60;99.90;;;;;;5001938;28;95469;-80
2022/01/20 14:11:20;;;;;;;8.55;2.13;;;3.60;99.90;;;;;;5001902;28;94317;-81
2022/01/20 14:13:46;;;;;;;7.35;2.08;;;3.80;99.90;;;;;;4999764;28;97883;-80
2022/01/20 14:16:12;;;;;;;9.90;2.22;;;3.80;99.90;;;;;;5001453;28;94679;-80
2022/01/20 14:18:43;;;;;;;9.40;2.15;;;3.80;99.90;;;;;;5001078;28;94428;-80
2022/01/20 14:21:10;;;;;;;10.05;2.03;;;3.80;99.90;;;;;;5000027;28;94356;-79
2022/01/20 14:23:36;;;;;;;8.07;2.20;;;3.80;99.90;;;;;;5000892;28;95720;-80
2022/01/20 14:26:04;;;;;;;5.05;1.90;;;3.70;99.90;;;;;;5001561;28;95093;-80
2022/01/20 14:28:30;;;;;;;9.20;2.05;;;3.80;99.90;;;;;;4999555;28;94316;-79
2022/01/20 14:30:56;;;;;;;8.63;1.90;;;3.80;99.90;;;;;;4999987;28;94531;-80
2022/01/20 14:33:21;;;;;;;8.10;1.90;;;3.80;99.90;;;;;;4999233;28;95458;-80
2022/01/20 14:35:49;;;;;;;5.80;1.77;;;3.90;99.90;;;;;;4999736;28;95543;-80
2022/01/20 14:38:15;;;;;;;6.20;1.63;;;3.90;99.90;;;;;;4998792;28;94460;-80
2022/01/20 14:40:40;;;;;;;4.93;1.55;;;3.90;99.90;;;;;;5000696;28;94513;-80
2022/01/20 14:43:06;;;;;;;6.22;1.70;;;3.90;99.90;;;;;;5000265;28;95246;-80
2022/01/20 14:45:32;;;;;;;9.07;1.77;;;3.80;99.90;;;;;;5000460;28;94549;-80
2022/01/20 14:47:59;;;;;;;6.38;1.58;;;3.70;99.90;;;;;;4998793;28;94495;-80
2022/01/20 14:50:28;;;;;;;7.15;1.70;;;3.60;99.90;;;;;;5000662;28;93571;-81
2022/01/20 14:52:56;;;;;;;8.32;1.75;;;3.50;99.90;;;;;;5001826;28;95087;-80
2022/01/20 14:55:21;;;;;;;3.90;1.75;;;3.50;99.90;;;;;;5010871;28;94397;-81
2022/01/20 14:57:47;;;;;;;14.25;1.85;;;3.40;99.90;;;;;;5017030;28;95498;-81
2022/01/20 15:00:15;;;;;;;4.47;1.70;;;3.40;99.90;;;;;;5004900;28;95017;-78
2022/01/20 15:02:47;;;;;;;5.40;1.70;;;3.40;99.90;;;;;;4993492;28;97734;-78
2022/01/20 15:05:17;;;;;;;5.55;2.00;;;3.30;99.90;;;;;;4993702;28;96536;-78
2022/01/20 15:07:43;;;;;;;4.38;1.52;;;3.40;99.90;;;;;;4995746;28;94450;-79
2022/01/20 15:10:12;;;;;;;6.53;2.25;;;3.40;99.90;;;;;;4996018;28;94464;-78
2022/01/20 15:12:39;;;;;;;8.50;1.90;;;3.40;99.90;;;;;;4996077;28;96770;-80
2022/01/20 15:15:06;;;;;;;4.88;1.92;;;3.40;99.90;;;;;;4998802;28;95673;-80
2022/01/20 15:17:31;;;;;;;7.70;1.83;;;3.30;99.90;;;;;;4999409;28;94447;-80
2022/01/20 15:19:58;;;;;;;3.35;1.70;;;3.20;99.90;;;;;;4999078;28;94499;-80
2022/01/20 15:22:23;;;;;;;6.85;2.10;;;3.10;99.90;;;;;;4998338;28;95552;-80
2022/01/20 15:24:49;;;;;;;5.05;1.67;;;3.20;99.90;;;;;;4997886;28;95956;-80
2022/01/20 15:27:14;;;;;;;5.45;2.05;;;3.20;99.90;;;;;;4997502;28;94405;-79
2022/01/20 15:29:40;;;;;;;7.00;1.90;;;3.20;99.90;;;;;;4999338;28;94491;-80
2022/01/20 15:32:06;;;;;;;5.80;1.85;;;3.20;99.90;;;;;;4998762;28;95977;-80
2022/01/20 15:34:31;;;;;;;7.60;2.03;;;3.10;99.90;;;;;;4996550;28;97833;-81
2022/01/20 15:36:57;;;;;;;4.00;1.42;;;3.00;99.90;;;;;;4999680;28;94431;-80
2022/01/20 15:39:23;;;;;;;10.63;1.77;;;3.00;99.90;;;;;;4999384;28;93720;-80
2022/01/20 15:41:49;;;;;;;2.70;1.33;;;2.80;99.90;;;;;;4999758;28;94882;-80
2022/01/20 15:44:16;;;;;;;5.70;2.22;;;2.70;99.90;;;;;;4999835;28;94325;-80
2022/01/20 15:46:43;;;;;;;3.70;1.52;;;2.60;99.90;;;;;;4997660;28;95657;-80
2022/01/20 15:49:09;;;;;;;5.63;1.73;;;2.50;99.90;;;;;;4999074;28;94518;-80
2022/01/20 15:51:35;;;;;;;4.18;1.65;;;2.30;99.90;;;;;;4998727;28;95140;-79
2022/01/20 15:54:01;;;;;;;4.15;1.30;;;2.20;99.90;;;;;;4998039;28;94694;-80
2022/01/20 15:56:27;;;;;;;6.90;1.60;;;2.10;99.90;;;;;;4998683;28;94581;-80
2022/01/20 15:58:52;;;;;;;3.47;1.60;;;2.00;99.90;;;;;;5002754;28;94639;-80
2022/01/20 16:01:18;;;;;;;4.28;1.20;;;1.80;99.90;;;;;;5001573;28;94432;-80
2022/01/20 16:03:44;;;;;;;4.22;1.52;;;1.90;99.90;;;;;;4999642;28;97541;-79
2022/01/20 16:06:10;;;;;;;3.30;1.00;;;1.80;99.90;;;;;;4999074;28;94448;-79
2022/01/20 16:08:35;;;;;;;4.80;1.35;;;1.70;99.90;;;;;;4999195;28;94504;-81
2022/01/20 16:11:01;;;;;;;3.55;1.27;;;1.70;99.90;;;;;;4998290;28;96539;-79
2022/01/20 16:13:27;;;;;;;3.33;1.27;;;1.70;99.90;;;;;;5000437;28;95729;-80
2022/01/20 16:15:53;;;;;;;6.72;1.58;;;1.60;99.90;;;;;;5001620;28;94505;-80
2022/01/20 16:18:20;;;;;;;4.90;1.20;;;1.50;99.90;;;;;;5002341;28;94551;-80
2022/01/20 16:20:46;;;;;;;5.90;1.40;;;1.30;99.90;;;;;;5002507;28;94499;-80
2022/01/20 16:23:12;;;;;;;2.92;1.13;;;1.40;99.90;;;;;;5001912;28;94918;-80
2022/01/20 16:25:39;;;;;;;3.95;1.67;;;1.30;99.90;;;;;;5001018;28;94474;-80
2022/01/20 16:28:06;;;;;;;5.00;1.58;;;1.20;99.90;;;;;;5002316;28;93737;-80
2022/01/20 16:30:32;;;;;;;3.75;1.80;;;1.20;99.90;;;;;;5000442;28;97980;-80
2022/01/20 16:32:58;;;;;;;4.55;2.03;;;1.30;99.90;;;;;;5000927;28;95341;-80
2022/01/20 16:35:24;;;;;;;3.70;1.60;;;1.20;99.90;;;;;;5000913;28;95603;-80
2022/01/20 16:37:50;;;;;;;8.55;2.17;;;1.10;99.90;;;;;;4998860;28;94658;-79
2022/01/20 16:40:19;;;;;;;9.40;1.70;;;1.10;99.90;;;;;;5003591;28;95059;-79
2022/01/20 16:42:45;;;;;;;5.43;1.63;;;1.10;99.90;;;;;;5000000;28;96944;-77
2022/01/20 16:45:11;;;;;;;5.32;1.58;;;1.00;99.90;;;;;;5001692;28;94492;-77
2022/01/20 16:47:38;;;;;;;6.15;1.70;;;1.00;99.90;;;;;;5001811;28;94806;-78
2022/01/20 16:50:05;;;;;;;4.82;1.42;;;1.10;99.90;;;;;;5003834;28;94926;-77
2022/01/20 16:52:31;;;;;;;6.43;1.67;;;1.10;99.90;;;;;;5002686;28;95692;-77
2022/01/20 16:54:57;;;;;;;10.00;2.92;;;1.10;99.90;;;;;;5003075;28;94522;-79
2022/01/20 16:57:22;;;;;;;5.03;1.92;;;1.00;99.90;;;;;;5003523;28;94921;-77
2022/01/20 16:59:48;;;;;;;6.45;2.40;;;0.80;99.90;;;;;;5002792;28;95521;-76
2022/01/20 17:02:19;;;;;;;4.80;2.00;;;0.60;99.90;;;;;;5000885;28;97413;-79
2022/01/20 17:04:45;;;;;;;5.20;2.05;;;0.40;99.90;;;;;;5000912;28;94589;-77
2022/01/20 17:07:10;;;;;;;5.72;2.53;;;0.40;99.90;;;;;;5000964;28;94474;-78
2022/01/20 17:09:36;;;;;;;6.28;2.25;;;0.10;99.90;;;;;;5000429;28;95228;-79
2022/01/20 17:12:02;;;;;;;5.63;2.40;;;-0.10;99.90;;;;;;4999007;28;94632;-79
2022/01/20 17:14:27;;;;;;;6.55;2.63;;;-0.20;99.90;;;;;;4998979;28;94569;-79
2022/01/20 17:16:53;;;;;;;6.03;2.42;;;-0.30;99.90;;;;;;5020222;22;95333;-74
2022/01/20 17:19:18;;;;;;;10.82;2.80;;;-0.30;99.90;;;;;;4996595;28;94464;-75
2022/01/20 17:21:45;;;;;;;5.25;2.63;;;-0.10;99.90;;;;;;4995368;28;96474;-74
2022/01/20 17:24:10;;;;;;;7.97;2.75;;;0.20;99.90;;;;;;4996414;28;95348;-74
2022/01/20 17:26:36;;;;;;;8.30;2.30;;;0.30;99.90;;;;;;4996478;28;94473;-74
2022/01/20 17:29:05;;;;;;;6.80;2.58;;;0.50;99.90;;;;;;4995043;28;98055;-74
2022/01/20 17:31:31;;;;;;;7.50;2.63;;;0.70;99.90;;;;;;4996439;28;94606;-75
2022/01/20 17:33:58;;;;;;;7.38;3.05;;;0.80;99.90;;;;;;4996767;28;94588;-75
2022/01/20 17:36:24;;;;;;;10.63;3.13;;;0.90;99.90;;;;;;4996510;28;94477;-75
2022/01/20 17:38:49;;;;;;;6.13;2.80;;;1.00;99.90;;;;;;4995019;28;98489;-74
2022/01/20 17:41:16;;;;;;;6.53;3.30;;;1.10;99.90;;;;;;4994991;28;97553;-74
2022/01/20 17:43:41;;;;;;;9.98;2.85;;;1.10;99.90;;;;;;4995152;28;95029;-74
2022/01/20 17:46:07;;;;;;;12.57;3.55;;;1.20;99.90;;;;;;4994776;28;94513;-74
2022/01/20 17:48:32;;;;;;;6.53;3.33;;;1.30;99.90;;;;;;4995316;28;96132;-75
2022/01/20 17:50:58;;;;;;;10.65;3.17;;;1.40;99.90;;;;;;4995984;28;97511;-74
2022/01/20 17:53:23;;;;;;;9.93;3.85;;;1.40;99.90;;;;;;4994947;28;94466;-74
2022/01/20 17:55:50;;;;;;;7.38;3.88;;;1.40;99.90;;;;;;4994591;28;94571;-74
2022/01/20 17:58:16;;;;;;;8.98;3.20;;;1.50;99.90;;;;;;4996266;28;95442;-74
2022/01/20 18:00:42;;;;;;;7.93;3.30;;;1.60;99.90;;;;;;4996259;28;94510;-75
2022/01/20 18:03:08;;;;;;;11.32;3.95;;;1.60;99.90;;;;;;4994671;28;94520;-74